Terminal Aerodrome Forecast
Issued by NWS Topeka, KS

Home | Current Version | Previous Version | Graphics & Text | Print | Product List | Glossary On
Versions: 1 2 3 4 5 6 7 8 9 10 11 12 13 14 15 16 17 18 19 20 21 22
000
FTUS43 KTOP 171300 AAA
TAFTOP
TAF AMD
KTOP 171354Z 1714/1812 02004KT 4SM BR BKN003
      TEMPO 1714/1715 6SM BR SCT006
     FM171500 03003KT P6SM SCT012
     FM171700 04007KT P6SM SCT040=

USA.gov is the U.S. government's official web portal to all federal, state and local government web resources and services.